Back to Top

Language: 

My Weather Underground Personal Weather Station Historical Data with Graphs...

Delerius Weather Station Historical Data
Daily Summary for June 6, 2017 Units:  English    Metric   Both
« Previous Day
Next Day »
Daily Weekly Monthly Yearly Custom
  High: Low: Average:
Temperature: 54.7 °F 51.3 °F 53.2 °F
Dew Point: 53.8 °F 46.9 °F 50.3 °F
Humidity: 97 % 76 % 90 %
Wind Speed: 44.0 mph 4.0 mph 15.1 mph
Wind Gust: 44.0 mph - -
Wind:- - WSW
Pressure: 29.42 in 29.09 in -
Precipitation: 0.20 in    
Historical Graphs
 
 
Tabular Data for June 6, 2017
Time Temperature Dew Point Pressure Wind Wind Speed Wind Gust Humidity Rainfall Rate (Hourly) solar Conditions
00:01 54.3 °F 52.9 °F 29.26 in SSE 9.0 mph 14.0 mph 95 % 0.01 in 0 W/m2
00:06 54.3 °F 52.9 °F 29.25 in SE 8.0 mph 14.0 mph 95 % 0.01 in 0 W/m2
00:11 54.1 °F 52.7 °F 29.25 in SE 8.0 mph 14.0 mph 95 % 0.00 in 0 W/m2
00:16 54.1 °F 52.7 °F 29.25 in SE 9.0 mph 16.0 mph 95 % 0.00 in 0 W/m2
00:18 54.3 °F 52.9 °F 29.25 in SE 9.0 mph 16.0 mph 95 % 0.00 in 0 W/m2
00:23 54.1 °F 52.7 °F 29.24 in SE 9.0 mph 13.0 mph 95 % 0.00 in 0 W/m2
00:28 54.1 °F 52.7 °F 29.24 in SE 9.0 mph 16.0 mph 95 % 0.00 in 0 W/m2
00:33 54.1 °F 52.7 °F 29.24 in SE 9.0 mph 16.0 mph 95 % 0.00 in 0 W/m2
00:39 54.1 °F 52.7 °F 29.23 in SE 7.0 mph 12.0 mph 95 % 0.00 in 0 W/m2
00:44 54.1 °F 52.7 °F 29.23 in SE 8.0 mph 16.0 mph 95 % 0.00 in 0 W/m2
00:49 54.1 °F 52.7 °F 29.23 in SSE 8.0 mph 16.0 mph 95 % 0.00 in 0 W/m2
00:54 54.1 °F 52.7 °F 29.22 in SE 9.0 mph 18.0 mph 95 % 0.01 in 0 W/m2
00:59 54.1 °F 52.7 °F 29.22 in SE 9.0 mph 18.0 mph 95 % 0.01 in 0 W/m2
01:04 54.1 °F 52.7 °F 29.22 in SE 9.0 mph 15.0 mph 95 % 0.01 in 0 W/m2
01:09 54.1 °F 52.7 °F 29.22 in SE 10.0 mph 18.0 mph 95 % 0.01 in 0 W/m2
01:14 54.1 °F 52.7 °F 29.21 in SE 9.0 mph 18.0 mph 95 % 0.01 in 0 W/m2
01:19 54.1 °F 52.7 °F 29.21 in SSE 9.0 mph 16.0 mph 95 % 0.01 in 0 W/m2
01:24 54.1 °F 52.7 °F 29.20 in SE 8.0 mph 16.0 mph 95 % 0.01 in 0 W/m2
01:29 54.1 °F 53.0 °F 29.20 in SE 8.0 mph 14.0 mph 96 % 0.01 in 0 W/m2
01:34 54.1 °F 53.0 °F 29.20 in SE 9.0 mph 15.0 mph 96 % 0.01 in 0 W/m2
01:39 54.1 °F 53.0 °F 29.20 in SE 8.0 mph 15.0 mph 96 % 0.02 in 0 W/m2
01:44 54.0 °F 52.8 °F 29.19 in SE 8.0 mph 14.0 mph 96 % 0.02 in 0 W/m2
01:49 54.0 °F 52.8 °F 29.19 in SE 9.0 mph 16.0 mph 96 % 0.02 in 0 W/m2
01:54 54.0 °F 52.8 °F 29.19 in SE 9.0 mph 16.0 mph 96 % 0.01 in 0 W/m2
01:59 54.0 °F 52.8 °F 29.18 in SE 10.0 mph 16.0 mph 96 % 0.01 in 0 W/m2
02:04 54.0 °F 52.8 °F 29.18 in SE 9.0 mph 16.0 mph 96 % 0.01 in 0 W/m2
02:09 54.0 °F 52.8 °F 29.18 in SE 9.0 mph 16.0 mph 96 % 0.01 in 0 W/m2
02:14 54.0 °F 52.8 °F 29.18 in SE 10.0 mph 19.0 mph 96 % 0.01 in 0 W/m2
02:19 54.0 °F 52.8 °F 29.17 in SE 10.0 mph 19.0 mph 96 % 0.02 in 0 W/m2
02:24 54.0 °F 52.8 °F 29.17 in SE 9.0 mph 18.0 mph 96 % 0.02 in 0 W/m2
02:29 54.0 °F 52.8 °F 29.17 in SE 8.0 mph 14.0 mph 96 % 0.02 in 0 W/m2
02:34 54.0 °F 52.8 °F 29.16 in SE 8.0 mph 15.0 mph 96 % 0.02 in 0 W/m2
02:39 54.0 °F 52.8 °F 29.16 in SE 9.0 mph 16.0 mph 96 % 0.02 in 0 W/m2
02:44 54.0 °F 52.8 °F 29.16 in SE 9.0 mph 16.0 mph 96 % 0.02 in 0 W/m2
02:49 54.0 °F 52.8 °F 29.15 in SE 9.0 mph 15.0 mph 96 % 0.02 in 0 W/m2
02:54 54.0 °F 52.8 °F 29.15 in SE 9.0 mph 15.0 mph 96 % 0.02 in 0 W/m2
02:59 54.0 °F 52.8 °F 29.15 in SE 9.0 mph 15.0 mph 96 % 0.02 in 0 W/m2
03:04 54.0 °F 52.8 °F 29.15 in SE 9.0 mph 15.0 mph 96 % 0.02 in 0 W/m2
03:10 54.0 °F 52.8 °F 29.15 in SE 9.0 mph 15.0 mph 96 % 0.02 in 0 W/m2
03:15 54.0 °F 52.8 °F 29.14 in SE 8.0 mph 14.0 mph 96 % 0.02 in 0 W/m2
03:20 54.1 °F 53.0 °F 29.14 in SSE 8.0 mph 13.0 mph 96 % 0.02 in 0 W/m2
03:25 54.1 °F 53.0 °F 29.14 in SE 8.0 mph 14.0 mph 96 % 0.02 in 0 W/m2
03:30 54.1 °F 53.0 °F 29.13 in SE 8.0 mph 14.0 mph 96 % 0.01 in 0 W/m2
03:35 54.1 °F 53.0 °F 29.13 in SE 7.0 mph 13.0 mph 96 % 0.01 in 0 W/m2
03:40 54.1 °F 53.0 °F 29.13 in SE 8.0 mph 14.0 mph 96 % 0.01 in 0 W/m2
03:45 54.1 °F 53.3 °F 29.13 in SE 9.0 mph 14.0 mph 97 % 0.01 in 0 W/m2
03:50 54.1 °F 53.3 °F 29.13 in SE 9.0 mph 14.0 mph 97 % 0.02 in 0 W/m2
03:55 54.1 °F 53.3 °F 29.13 in SE 8.0 mph 14.0 mph 97 % 0.01 in 0 W/m2
04:00 54.0 °F 53.1 °F 29.12 in SE 7.0 mph 11.0 mph 97 % 0.01 in 0 W/m2
04:05 54.0 °F 53.1 °F 29.12 in SE 8.0 mph 12.0 mph 97 % 0.01 in 0 W/m2
04:10 54.0 °F 53.1 °F 29.12 in SE 8.0 mph 12.0 mph 97 % 0.01 in 0 W/m2
04:15 54.0 °F 53.1 °F 29.11 in SE 9.0 mph 15.0 mph 97 % 0.01 in 0 W/m2
04:20 54.0 °F 53.1 °F 29.11 in SE 8.0 mph 15.0 mph 97 % 0.01 in 0 W/m2
04:25 54.0 °F 53.1 °F 29.11 in SE 8.0 mph 12.0 mph 97 % 0.01 in 0 W/m2
04:30 54.1 °F 53.3 °F 29.11 in SE 7.0 mph 12.0 mph 97 % 0.01 in 0 W/m2
04:35 54.1 °F 53.3 °F 29.11 in SE 6.0 mph 10.0 mph 97 % 0.01 in 0 W/m2
04:40 54.1 °F 53.3 °F 29.11 in SE 7.0 mph 12.0 mph 97 % 0.01 in 0 W/m2
04:45 54.1 °F 53.3 °F 29.11 in SE 7.0 mph 12.0 mph 97 % 0.01 in 0 W/m2
04:50 54.1 °F 53.3 °F 29.11 in SE 6.0 mph 12.0 mph 97 % 0.00 in 0 W/m2
04:55 54.1 °F 53.3 °F 29.11 in SE 7.0 mph 11.0 mph 97 % 0.01 in 0 W/m2
05:00 54.1 °F 53.3 °F 29.11 in SE 7.0 mph 11.0 mph 97 % 0.01 in 0 W/m2
05:05 54.1 °F 53.3 °F 29.10 in SE 6.0 mph 10.0 mph 97 % 0.01 in 5 W/m2
05:11 54.1 °F 53.3 °F 29.10 in SE 6.0 mph 10.0 mph 97 % 0.01 in 5 W/m2
05:16 54.1 °F 53.3 °F 29.10 in SE 6.0 mph 10.0 mph 97 % 0.01 in 5 W/m2
05:20 54.1 °F 53.3 °F 29.10 in SSE 5.0 mph 8.0 mph 97 % 0.01 in 9 W/m2
05:26 54.1 °F 53.3 °F 29.09 in SSE 6.0 mph 11.0 mph 97 % 0.01 in 14 W/m2
05:31 54.3 °F 53.5 °F 29.09 in SSE 5.0 mph 11.0 mph 97 % 0.01 in 28 W/m2
05:36 54.3 °F 53.5 °F 29.09 in SSE 4.0 mph 8.0 mph 97 % 0.01 in 23 W/m2
05:41 54.3 °F 53.5 °F 29.09 in SE 5.0 mph 10.0 mph 97 % 0.01 in 21 W/m2
05:46 54.3 °F 53.5 °F 29.09 in SE 5.0 mph 10.0 mph 97 % 0.01 in 23 W/m2
05:51 54.5 °F 53.7 °F 29.09 in SE 5.0 mph 9.0 mph 97 % 0.01 in 23 W/m2
05:56 54.5 °F 53.7 °F 29.09 in SE 5.0 mph 8.0 mph 97 % 0.00 in 21 W/m2
06:01 54.5 °F 53.7 °F 29.09 in SE 5.0 mph 8.0 mph 97 % 0.00 in 25 W/m2
06:06 54.7 °F 53.8 °F 29.09 in SSE 4.0 mph 8.0 mph 97 % 0.00 in 21 W/m2
06:11 54.7 °F 53.8 °F 29.09 in SE 5.0 mph 8.0 mph 97 % 0.01 in 21 W/m2
06:16 54.7 °F 53.8 °F 29.09 in SSE 5.0 mph 8.0 mph 97 % 0.01 in 23 W/m2
06:21 54.7 °F 53.8 °F 29.09 in SSE 6.0 mph 9.0 mph 97 % 0.01 in 23 W/m2
06:26 54.7 °F 53.8 °F 29.09 in SE 6.0 mph 10.0 mph 97 % 0.02 in 18 W/m2
06:31 54.7 °F 53.8 °F 29.09 in SE 6.0 mph 12.0 mph 97 % 0.02 in 11 W/m2
06:36 54.7 °F 53.8 °F 29.09 in South 8.0 mph 16.0 mph 97 % 0.03 in 25 W/m2
06:41 54.1 °F 53.3 °F 29.10 in WSW 10.0 mph 20.0 mph 97 % 0.03 in 35 W/m2
06:46 53.8 °F 52.9 °F 29.10 in West 10.0 mph 20.0 mph 97 % 0.03 in 40 W/m2
06:51 53.6 °F 52.5 °F 29.10 in West 9.0 mph 19.0 mph 96 % 0.03 in 42 W/m2
06:56 53.2 °F 52.1 °F 29.10 in West 10.0 mph 23.0 mph 96 % 0.03 in 54 W/m2
07:01 52.9 °F 51.8 °F 29.10 in WNW 12.0 mph 23.0 mph 96 % 0.03 in 72 W/m2
07:06 52.9 °F 51.8 °F 29.10 in WNW 13.0 mph 23.0 mph 96 % 0.03 in 84 W/m2
07:11 52.5 °F 51.4 °F 29.10 in WNW 12.0 mph 23.0 mph 96 % 0.02 in 79 W/m2
07:16 52.5 °F 51.4 °F 29.11 in WNW 12.0 mph 22.0 mph 96 % 0.02 in 76 W/m2
07:21 52.3 °F 51.2 °F 29.11 in WNW 12.0 mph 21.0 mph 96 % 0.02 in 40 W/m2
07:26 52.2 °F 50.8 °F 29.11 in WNW 11.0 mph 19.0 mph 95 % 0.02 in 56 W/m2
07:31 51.6 °F 50.2 °F 29.11 in WNW 13.0 mph 22.0 mph 95 % 0.01 in 74 W/m2
07:36 51.6 °F 50.2 °F 29.11 in WNW 13.0 mph 23.0 mph 95 % 0.00 in 84 W/m2
07:41 51.4 °F 49.8 °F 29.11 in WNW 13.0 mph 23.0 mph 94 % 0.00 in 95 W/m2
07:46 51.4 °F 49.8 °F 29.11 in WNW 12.0 mph 21.0 mph 94 % 0.01 in 98 W/m2
07:51 51.4 °F 49.8 °F 29.11 in WNW 12.0 mph 25.0 mph 94 % 0.01 in 104 W/m2
07:56 51.4 °F 49.8 °F 29.11 in WNW 13.0 mph 25.0 mph 94 % 0.01 in 105 W/m2
08:01 51.4 °F 49.8 °F 29.11 in WNW 12.0 mph 21.0 mph 94 % 0.01 in 98 W/m2
08:06 51.4 °F 49.5 °F 29.12 in WNW 12.0 mph 23.0 mph 93 % 0.01 in 76 W/m2
08:11 51.3 °F 49.3 °F 29.12 in WNW 12.0 mph 29.0 mph 93 % 0.01 in 84 W/m2
08:14 51.3 °F 49.3 °F 29.12 in WNW 13.0 mph 29.0 mph 93 % 0.01 in 74 W/m2
08:19 51.3 °F 49.3 °F 29.12 in WNW 12.0 mph 22.0 mph 93 % 0.01 in 67 W/m2
08:24 51.4 °F 49.5 °F 29.12 in WNW 12.0 mph 21.0 mph 93 % 0.01 in 93 W/m2
08:29 51.4 °F 49.8 °F 29.12 in WNW 14.0 mph 25.0 mph 94 % 0.02 in 111 W/m2
08:34 51.4 °F 49.8 °F 29.12 in WNW 13.0 mph 25.0 mph 94 % 0.02 in 134 W/m2
08:39 51.6 °F 49.9 °F 29.12 in WNW 12.0 mph 22.0 mph 94 % 0.02 in 146 W/m2
08:44 51.6 °F 49.9 °F 29.12 in WNW 14.0 mph 22.0 mph 94 % 0.01 in 162 W/m2
08:49 52.0 °F 50.3 °F 29.12 in WNW 14.0 mph 23.0 mph 94 % 0.01 in 181 W/m2
08:54 52.0 °F 50.3 °F 29.12 in WNW 13.0 mph 23.0 mph 94 % 0.01 in 169 W/m2
08:59 52.0 °F 50.3 °F 29.12 in WNW 15.0 mph 26.0 mph 94 % 0.02 in 156 W/m2
09:04 52.0 °F 50.0 °F 29.12 in WNW 17.0 mph 30.0 mph 93 % 0.02 in 167 W/m2
09:09 52.0 °F 50.0 °F 29.12 in WNW 17.0 mph 30.0 mph 93 % 0.02 in 185 W/m2
09:14 52.0 °F 50.3 °F 29.12 in WNW 17.0 mph 29.0 mph 94 % 0.02 in 202 W/m2
09:19 52.2 °F 50.5 °F 29.12 in WNW 15.0 mph 27.0 mph 94 % 0.02 in 204 W/m2
09:24 52.2 °F 50.5 °F 29.12 in WNW 17.0 mph 28.0 mph 94 % 0.02 in 216 W/m2
09:29 52.3 °F 50.7 °F 29.12 in WNW 17.0 mph 28.0 mph 94 % 0.02 in 223 W/m2
09:35 52.3 °F 50.7 °F 29.12 in WNW 16.0 mph 28.0 mph 94 % 0.02 in 241 W/m2
09:39 52.3 °F 50.7 °F 29.12 in WNW 17.0 mph 28.0 mph 94 % 0.02 in 223 W/m2
09:45 52.3 °F 50.7 °F 29.12 in WNW 17.0 mph 30.0 mph 94 % 0.02 in 220 W/m2
09:50 52.3 °F 50.7 °F 29.12 in WNW 17.0 mph 30.0 mph 94 % 0.02 in 211 W/m2
09:55 52.3 °F 50.4 °F 29.13 in WNW 17.0 mph 31.0 mph 93 % 0.02 in 181 W/m2
10:00 52.3 °F 50.4 °F 29.13 in WNW 17.0 mph 31.0 mph 93 % 0.02 in 162 W/m2
10:05 52.3 °F 50.4 °F 29.13 in WNW 16.0 mph 25.0 mph 93 % 0.02 in 132 W/m2
10:10 52.2 °F 50.2 °F 29.13 in WNW 16.0 mph 34.0 mph 93 % 0.02 in 167 W/m2
10:15 52.2 °F 50.2 °F 29.13 in WNW 19.0 mph 34.0 mph 93 % 0.02 in 178 W/m2
10:20 52.0 °F 49.7 °F 29.14 in WNW 20.0 mph 34.0 mph 92 % 0.01 in 156 W/m2
10:25 52.0 °F 49.7 °F 29.14 in WNW 18.0 mph 34.0 mph 92 % 0.01 in 183 W/m2
10:30 52.0 °F 49.7 °F 29.14 in WNW 17.0 mph 28.0 mph 92 % 0.01 in 204 W/m2
10:35 52.2 °F 49.9 °F 29.14 in WNW 17.0 mph 29.0 mph 92 % 0.00 in 244 W/m2
10:40 52.3 °F 50.1 °F 29.14 in WNW 17.0 mph 31.0 mph 92 % 0.00 in 257 W/m2
10:45 52.3 °F 50.1 °F 29.14 in WNW 17.0 mph 31.0 mph 92 % 0.00 in 244 W/m2
10:50 52.5 °F 50.0 °F 29.14 in WNW 16.0 mph 31.0 mph 91 % 0.00 in 227 W/m2
10:55 52.5 °F 50.0 °F 29.15 in WNW 16.0 mph 27.0 mph 91 % 0.01 in 216 W/m2
11:00 52.5 °F 50.0 °F 29.15 in WNW 18.0 mph 30.0 mph 91 % 0.01 in 204 W/m2
11:05 52.5 °F 50.0 °F 29.15 in WNW 19.0 mph 30.0 mph 91 % 0.01 in 244 W/m2
11:06 52.5 °F 50.0 °F 29.15 in WNW 19.0 mph 30.0 mph 91 % 0.01 in 267 W/m2
11:11 52.7 °F 50.4 °F 29.15 in WNW 17.0 mph 27.0 mph 92 % 0.01 in 315 W/m2
11:16 52.9 °F 50.6 °F 29.16 in WNW 15.0 mph 29.0 mph 92 % 0.01 in 318 W/m2
11:21 53.1 °F 50.8 °F 29.16 in WNW 14.0 mph 29.0 mph 92 % 0.01 in 287 W/m2
11:26 53.1 °F 51.1 °F 29.15 in WNW 15.0 mph 29.0 mph 93 % 0.01 in 216 W/m2
11:31 52.9 °F 50.6 °F 29.16 in WNW 18.0 mph 32.0 mph 92 % 0.01 in 165 W/m2
11:36 52.9 °F 50.6 °F 29.16 in WNW 18.0 mph 32.0 mph 92 % 0.01 in 169 W/m2
11:41 52.7 °F 50.4 °F 29.16 in WNW 16.0 mph 28.0 mph 92 % 0.01 in 216 W/m2
11:46 52.7 °F 50.4 °F 29.16 in WNW 16.0 mph 26.0 mph 92 % 0.01 in 160 W/m2
11:51 52.7 °F 50.4 °F 29.17 in WNW 18.0 mph 40.0 mph 92 % 0.02 in 197 W/m2
11:56 52.7 °F 50.4 °F 29.17 in WNW 18.0 mph 40.0 mph 92 % 0.01 in 229 W/m2
12:01 52.7 °F 50.4 °F 29.17 in WNW 16.0 mph 29.0 mph 92 % 0.01 in 236 W/m2
12:06 52.7 °F 50.4 °F 29.17 in WNW 18.0 mph 32.0 mph 92 % 0.01 in 232 W/m2
12:11 52.7 °F 50.4 °F 29.17 in WNW 20.0 mph 32.0 mph 92 % 0.01 in 207 W/m2
12:16 52.9 °F 50.6 °F 29.17 in WNW 18.0 mph 31.0 mph 92 % 0.01 in 230 W/m2
12:22 52.7 °F 50.4 °F 29.17 in WNW 17.0 mph 29.0 mph 92 % 0.02 in 241 W/m2
12:27 52.9 °F 50.6 °F 29.17 in WNW 19.0 mph 34.0 mph 92 % 0.02 in 274 W/m2
12:32 52.9 °F 50.6 °F 29.18 in WNW 18.0 mph 34.0 mph 92 % 0.02 in 220 W/m2
12:37 52.9 °F 50.6 °F 29.18 in WNW 17.0 mph 29.0 mph 92 % 0.02 in 218 W/m2
12:42 52.9 °F 50.6 °F 29.18 in WNW 17.0 mph 31.0 mph 92 % 0.02 in 199 W/m2
12:47 52.7 °F 50.4 °F 29.18 in WNW 17.0 mph 31.0 mph 92 % 0.02 in 206 W/m2
12:52 52.7 °F 50.4 °F 29.18 in WNW 17.0 mph 30.0 mph 92 % 0.01 in 206 W/m2
12:57 52.7 °F 50.4 °F 29.18 in WNW 18.0 mph 30.0 mph 92 % 0.02 in 197 W/m2
13:02 52.7 °F 50.4 °F 29.18 in WNW 18.0 mph 29.0 mph 92 % 0.02 in 190 W/m2
13:07 52.5 °F 50.3 °F 29.19 in WNW 18.0 mph 36.0 mph 92 % 0.02 in 190 W/m2
13:12 52.5 °F 50.3 °F 29.19 in WNW 19.0 mph 37.0 mph 92 % 0.02 in 186 W/m2
13:17 52.3 °F 50.1 °F 29.19 in WNW 20.0 mph 37.0 mph 92 % 0.02 in 186 W/m2
13:22 52.3 °F 50.1 °F 29.19 in WNW 20.0 mph 42.0 mph 92 % 0.02 in 192 W/m2
13:27 52.2 °F 49.9 °F 29.19 in WNW 19.0 mph 42.0 mph 92 % 0.02 in 193 W/m2
13:32 52.2 °F 49.9 °F 29.19 in WNW 18.0 mph 33.0 mph 92 % 0.02 in 195 W/m2
13:37 52.2 °F 49.9 °F 29.20 in WNW 19.0 mph 34.0 mph 92 % 0.02 in 206 W/m2
13:42 52.2 °F 49.6 °F 29.20 in WNW 19.0 mph 35.0 mph 91 % 0.02 in 213 W/m2
13:47 52.2 °F 49.9 °F 29.20 in WNW 18.0 mph 35.0 mph 92 % 0.02 in 214 W/m2
13:52 52.2 °F 49.9 °F 29.20 in WNW 20.0 mph 37.0 mph 92 % 0.03 in 218 W/m2
13:57 52.2 °F 49.9 °F 29.20 in WNW 21.0 mph 37.0 mph 92 % 0.02 in 221 W/m2
14:03 52.2 °F 49.9 °F 29.20 in WNW 20.0 mph 36.0 mph 92 % 0.03 in 200 W/m2
14:08 52.2 °F 49.9 °F 29.21 in WNW 22.0 mph 36.0 mph 92 % 0.03 in 220 W/m2
14:13 52.2 °F 49.6 °F 29.21 in WNW 22.0 mph 35.0 mph 91 % 0.03 in 225 W/m2
14:18 52.2 °F 49.6 °F 29.21 in WNW 22.0 mph 36.0 mph 91 % 0.02 in 229 W/m2
14:23 52.0 °F 49.4 °F 29.22 in WNW 22.0 mph 40.0 mph 91 % 0.03 in 227 W/m2
14:28 52.0 °F 49.1 °F 29.22 in WNW 24.0 mph 43.0 mph 90 % 0.03 in 214 W/m2
14:33 52.0 °F 49.1 °F 29.23 in WNW 23.0 mph 43.0 mph 90 % 0.03 in 183 W/m2
14:38 52.0 °F 49.1 °F 29.23 in WNW 23.0 mph 41.0 mph 90 % 0.02 in 195 W/m2
14:43 52.0 °F 48.8 °F 29.23 in WNW 24.0 mph 41.0 mph 89 % 0.02 in 195 W/m2
14:48 52.0 °F 48.8 °F 29.23 in WNW 23.0 mph 38.0 mph 89 % 0.02 in 192 W/m2
14:53 52.0 °F 48.8 °F 29.23 in WNW 21.0 mph 37.0 mph 89 % 0.02 in 199 W/m2
14:58 52.2 °F 49.0 °F 29.24 in WNW 20.0 mph 37.0 mph 89 % 0.02 in 204 W/m2
15:03 52.2 °F 49.0 °F 29.24 in WNW 21.0 mph 39.0 mph 89 % 0.02 in 216 W/m2
15:08 52.2 °F 49.0 °F 29.25 in WNW 21.0 mph 39.0 mph 89 % 0.02 in 214 W/m2
15:13 52.3 °F 49.2 °F 29.25 in WNW 21.0 mph 35.0 mph 89 % 0.02 in 195 W/m2
15:18 52.3 °F 49.2 °F 29.25 in WNW 21.0 mph 41.0 mph 89 % 0.02 in 206 W/m2
15:45 52.6 °F 49.1 °F 29.26 in WNW 36.0 mph 36.0 mph 88 % 0.01 in 276 W/m2
16:00 53.2 °F 49.4 °F 29.27 in WNW 44.0 mph 44.0 mph 87 % 0.00 in 263 W/m2
16:15 53.3 °F 49.2 °F 29.27 in WNW 38.0 mph 38.0 mph 86 % 0.00 in 248 W/m2
16:30 53.5 °F 49.1 °F 29.27 in WNW 39.0 mph 39.0 mph 85 % 0.00 in 260 W/m2
16:45 53.7 °F 49.0 °F 29.28 in WNW 38.0 mph 38.0 mph 84 % 0.00 in 222 W/m2
17:00 53.7 °F 48.7 °F 29.29 in WNW 36.0 mph 36.0 mph 83 % 0.00 in 183 W/m2
17:15 53.7 °F 48.0 °F 29.30 in WNW 41.0 mph 41.0 mph 81 % 0.00 in 167 W/m2
17:32 54.1 °F 47.8 °F 29.30 in WNW 23.0 mph 23.0 mph 79 % 0.00 in 160 W/m2
17:37 54.3 °F 47.6 °F 29.30 in WNW 22.0 mph 38.0 mph 78 % 0.00 in 151 W/m2
17:42 54.3 °F 47.6 °F 29.30 in WNW 22.0 mph 38.0 mph 78 % 0.00 in 142 W/m2
17:47 54.3 °F 47.6 °F 29.31 in WNW 21.0 mph 36.0 mph 78 % 0.00 in 137 W/m2
17:52 54.5 °F 47.8 °F 29.30 in WNW 23.0 mph 36.0 mph 78 % 0.00 in 137 W/m2
17:54 54.5 °F 47.8 °F 29.31 in WNW 23.0 mph 38.0 mph 78 % 0.00 in 132 W/m2
17:59 54.5 °F 47.4 °F 29.31 in WNW 23.0 mph 38.0 mph 77 % 0.00 in 134 W/m2
18:01 54.5 °F 47.1 °F 29.31 in WNW 22.0 mph 38.0 mph 76 % 0.00 in 132 W/m2
18:06 54.5 °F 47.4 °F 29.31 in WNW 21.0 mph 37.0 mph 77 % 0.00 in 128 W/m2
18:11 54.5 °F 47.1 °F 29.32 in WNW 20.0 mph 36.0 mph 76 % 0.00 in 125 W/m2
18:16 54.7 °F 47.3 °F 29.32 in WNW 22.0 mph 39.0 mph 76 % 0.00 in 120 W/m2
18:21 54.7 °F 47.6 °F 29.32 in WNW 22.0 mph 39.0 mph 77 % 0.00 in 121 W/m2
18:26 54.5 °F 47.1 °F 29.32 in West 21.0 mph 34.0 mph 76 % 0.00 in 134 W/m2
18:31 54.5 °F 47.1 °F 29.32 in WNW 19.0 mph 35.0 mph 76 % 0.00 in 148 W/m2
18:36 54.5 °F 47.4 °F 29.33 in WNW 21.0 mph 38.0 mph 77 % 0.00 in 144 W/m2
18:41 54.5 °F 47.4 °F 29.33 in WNW 20.0 mph 38.0 mph 77 % 0.00 in 109 W/m2
18:46 54.5 °F 47.8 °F 29.33 in WNW 19.0 mph 37.0 mph 78 % 0.00 in 104 W/m2
18:51 54.5 °F 47.8 °F 29.33 in West 19.0 mph 37.0 mph 78 % 0.00 in 109 W/m2
18:56 54.5 °F 47.8 °F 29.33 in West 19.0 mph 32.0 mph 78 % 0.00 in 79 W/m2
19:01 54.3 °F 47.9 °F 29.33 in West 19.0 mph 33.0 mph 79 % 0.00 in 100 W/m2
19:06 54.5 °F 48.1 °F 29.34 in WNW 18.0 mph 35.0 mph 79 % 0.00 in 102 W/m2
19:11 54.7 °F 48.3 °F 29.33 in West 18.0 mph 35.0 mph 79 % 0.00 in 113 W/m2
19:16 54.7 °F 48.3 °F 29.34 in West 18.0 mph 30.0 mph 79 % 0.00 in 102 W/m2
19:21 54.5 °F 48.1 °F 29.34 in West 17.0 mph 31.0 mph 79 % 0.00 in 74 W/m2
19:27 54.3 °F 47.9 °F 29.34 in West 19.0 mph 33.0 mph 79 % 0.00 in 95 W/m2
19:32 54.0 °F 48.3 °F 29.34 in West 20.0 mph 34.0 mph 81 % 0.00 in 65 W/m2
19:37 53.8 °F 48.4 °F 29.34 in West 18.0 mph 34.0 mph 82 % 0.00 in 90 W/m2
19:42 53.4 °F 48.1 °F 29.34 in West 17.0 mph 30.0 mph 82 % 0.00 in 93 W/m2
19:47 53.4 °F 48.1 °F 29.34 in West 17.0 mph 33.0 mph 82 % 0.00 in 84 W/m2
19:52 53.6 °F 47.9 °F 29.35 in West 17.0 mph 33.0 mph 81 % 0.00 in 77 W/m2
19:57 53.8 °F 47.8 °F 29.35 in West 19.0 mph 31.0 mph 80 % 0.00 in 70 W/m2
20:02 53.8 °F 47.8 °F 29.35 in West 19.0 mph 31.0 mph 80 % 0.00 in 63 W/m2
20:07 54.0 °F 47.9 °F 29.35 in West 17.0 mph 33.0 mph 80 % 0.00 in 35 W/m2
20:12 53.8 °F 48.1 °F 29.36 in West 17.0 mph 34.0 mph 81 % 0.00 in 25 W/m2
20:17 53.6 °F 47.9 °F 29.35 in West 17.0 mph 34.0 mph 81 % 0.00 in 23 W/m2
20:22 53.4 °F 48.1 °F 29.35 in West 17.0 mph 29.0 mph 82 % 0.00 in 23 W/m2
20:27 53.4 °F 47.7 °F 29.36 in West 17.0 mph 32.0 mph 81 % 0.00 in 21 W/m2
20:32 53.4 °F 47.7 °F 29.36 in West 18.0 mph 35.0 mph 81 % 0.00 in 30 W/m2
20:37 53.6 °F 47.9 °F 29.36 in West 16.0 mph 35.0 mph 81 % 0.00 in 30 W/m2
20:42 53.6 °F 47.9 °F 29.36 in West 17.0 mph 31.0 mph 81 % 0.00 in 25 W/m2
20:47 53.6 °F 47.6 °F 29.36 in West 19.0 mph 31.0 mph 80 % 0.00 in 23 W/m2
20:52 53.4 °F 47.7 °F 29.37 in West 18.0 mph 31.0 mph 81 % 0.00 in 18 W/m2
20:57 53.4 °F 47.7 °F 29.37 in West 17.0 mph 30.0 mph 81 % 0.00 in 12 W/m2
21:02 53.2 °F 47.9 °F 29.37 in West 16.0 mph 27.0 mph 82 % 0.00 in 7 W/m2
21:07 53.2 °F 48.2 °F 29.37 in West 16.0 mph 28.0 mph 83 % 0.00 in 0 W/m2
21:12 53.1 °F 48.4 °F 29.37 in West 17.0 mph 28.0 mph 84 % 0.00 in 7 W/m2
21:14 53.1 °F 48.4 °F 29.38 in West 17.0 mph 30.0 mph 84 % 0.00 in 7 W/m2
21:18 52.9 °F 48.2 °F 29.38 in West 18.0 mph 30.0 mph 84 % 0.00 in 0 W/m2
21:24 52.9 °F 47.9 °F 29.38 in West 19.0 mph 34.0 mph 83 % 0.00 in 0 W/m2
21:29 52.9 °F 47.5 °F 29.38 in West 18.0 mph 34.0 mph 82 % 0.00 in 0 W/m2
21:34 52.9 °F 47.5 °F 29.38 in WNW 17.0 mph 31.0 mph 82 % 0.00 in 0 W/m2
21:39 53.1 °F 47.4 °F 29.38 in WNW 17.0 mph 29.0 mph 81 % 0.00 in 0 W/m2
21:44 53.1 °F 47.4 °F 29.38 in West 18.0 mph 29.0 mph 81 % 0.00 in 0 W/m2
21:49 53.1 °F 47.4 °F 29.38 in West 18.0 mph 29.0 mph 81 % 0.00 in 0 W/m2
21:54 53.2 °F 47.6 °F 29.39 in West 19.0 mph 37.0 mph 81 % 0.00 in 0 W/m2
21:59 53.2 °F 47.2 °F 29.39 in West 20.0 mph 37.0 mph 80 % 0.00 in 0 W/m2
22:04 53.2 °F 47.2 °F 29.39 in West 19.0 mph 30.0 mph 80 % 0.00 in 0 W/m2
22:09 53.2 °F 46.9 °F 29.39 in West 20.0 mph 32.0 mph 79 % 0.00 in 0 W/m2
22:14 53.2 °F 46.9 °F 29.39 in West 19.0 mph 32.0 mph 79 % 0.00 in 0 W/m2
22:19 53.2 °F 46.9 °F 29.39 in West 19.0 mph 31.0 mph 79 % 0.00 in 0 W/m2
22:24 53.2 °F 46.9 °F 29.40 in West 18.0 mph 31.0 mph 79 % 0.00 in 0 W/m2
22:29 53.2 °F 47.2 °F 29.40 in West 18.0 mph 31.0 mph 80 % 0.00 in 0 W/m2
22:34 53.2 °F 47.2 °F 29.40 in West 18.0 mph 31.0 mph 80 % 0.00 in 0 W/m2
22:39 53.2 °F 47.6 °F 29.40 in West 17.0 mph 32.0 mph 81 % 0.00 in 0 W/m2
22:44 53.1 °F 47.7 °F 29.41 in West 19.0 mph 32.0 mph 82 % 0.00 in 0 W/m2
22:49 52.9 °F 47.9 °F 29.41 in West 19.0 mph 31.0 mph 83 % 0.00 in 0 W/m2
22:54 52.7 °F 47.7 °F 29.41 in West 16.0 mph 30.0 mph 83 % 0.00 in 0 W/m2
22:59 52.5 °F 47.5 °F 29.41 in West 14.0 mph 28.0 mph 83 % 0.00 in 0 W/m2
23:04 52.5 °F 47.5 °F 29.41 in West 16.0 mph 33.0 mph 83 % 0.00 in 0 W/m2
23:09 52.5 °F 47.8 °F 29.41 in West 17.0 mph 33.0 mph 84 % 0.00 in 0 W/m2
23:14 52.3 °F 47.6 °F 29.42 in West 17.0 mph 30.0 mph 84 % 0.00 in 0 W/m2
23:19 52.3 °F 47.6 °F 29.41 in West 17.0 mph 28.0 mph 84 % 0.00 in 0 W/m2
23:25 52.3 °F 47.6 °F 29.41 in West 17.0 mph 28.0 mph 84 % 0.00 in 0 W/m2
23:30 52.2 °F 47.5 °F 29.42 in West 17.0 mph 28.0 mph 84 % 0.00 in 0 W/m2
23:35 52.2 °F 47.8 °F 29.42 in West 17.0 mph 29.0 mph 85 % 0.00 in 0 W/m2
23:40 52.2 °F 47.8 °F 29.42 in West 16.0 mph 31.0 mph 85 % 0.00 in 0 W/m2
23:45 52.2 °F 47.5 °F 29.42 in West 18.0 mph 31.0 mph 84 % 0.00 in 0 W/m2
23:50 52.3 °F 47.6 °F 29.42 in West 17.0 mph 31.0 mph 84 % 0.00 in 0 W/m2
23:55 52.3 °F 48.0 °F 29.42 in West 16.0 mph 26.0 mph 85 % 0.00 in 0 W/m2
Delerius-Weather
Compliments of Weather Underground - 2.25 mb

Data updates at regular intervals.